sensor_id;sensor_type;location;lat;lon;timestamp;temperature;humidity
21678;DHT22;11000;50.360;7.582;2022-12-18T00:01:17;-6.60;99.90
21678;DHT22;11000;50.360;7.582;2022-12-18T00:03:38;-6.50;99.90
21678;DHT22;11000;50.360;7.582;2022-12-18T00:05:59;-6.60;99.90
21678;DHT22;11000;50.360;7.582;2022-12-18T00:08:19;-6.60;99.90
21678;DHT22;11000;50.360;7.582;2022-12-18T00:10:40;-6.60;99.90
21678;DHT22;11000;50.360;7.582;2022-12-18T00:13:00;-6.70;99.90
21678;DHT22;11000;50.360;7.582;2022-12-18T00:15:21;-6.70;99.90
21678;DHT22;11000;50.360;7.582;2022-12-18T00:17:41;-6.70;99.90
21678;DHT22;11000;50.360;7.582;2022-12-18T00:20:02;-6.70;99.90
21678;DHT22;11000;50.360;7.582;2022-12-18T00:22:23;-6.80;99.90
21678;DHT22;11000;50.360;7.582;2022-12-18T00:24:43;-6.80;99.90
21678;DHT22;11000;50.360;7.582;2022-12-18T00:27:04;-6.90;99.90
21678;DHT22;11000;50.360;7.582;2022-12-18T00:29:24;-6.90;99.90
21678;DHT22;11000;50.360;7.582;2022-12-18T00:31:46;-6.80;99.90
21678;DHT22;11000;50.360;7.582;2022-12-18T00:34:06;-6.90;99.90
21678;DHT22;11000;50.360;7.582;2022-12-18T00:36:29;-6.90;99.90
21678;DHT22;11000;50.360;7.582;2022-12-18T00:38:50;-6.90;99.90
21678;DHT22;11000;50.360;7.582;2022-12-18T00:41:13;-6.90;99.90
21678;DHT22;11000;50.360;7.582;2022-12-18T00:43:34;-7.00;99.90
21678;DHT22;11000;50.360;7.582;2022-12-18T00:45:54;-7.00;99.90
21678;DHT22;11000;50.360;7.582;2022-12-18T00:48:15;-7.00;99.90
21678;DHT22;11000;50.360;7.582;2022-12-18T00:50:35;-7.00;99.90
21678;DHT22;11000;50.360;7.582;2022-12-18T00:52:56;-7.10;99.90
21678;DHT22;11000;50.360;7.582;2022-12-18T00:55:17;-7.10;99.90
21678;DHT22;11000;50.360;7.582;2022-12-18T00:57:38;-7.20;99.90
21678;DHT22;11000;50.360;7.582;2022-12-18T00:59:58;-7.20;99.90
21678;DHT22;11000;50.360;7.582;2022-12-18T01:02:19;-7.20;99.90
21678;DHT22;11000;50.360;7.582;2022-12-18T01:04:39;-7.20;99.90
21678;DHT22;11000;50.360;7.582;2022-12-18T01:07:00;-7.20;99.90
21678;DHT22;11000;50.360;7.582;2022-12-18T01:09:20;-7.20;99.90
21678;DHT22;11000;50.360;7.582;2022-12-18T01:11:41;-7.20;99.90
21678;DHT22;11000;50.360;7.582;2022-12-18T01:14:01;-7.20;99.90
21678;DHT22;11000;50.360;7.582;2022-12-18T01:16:22;-7.20;99.90
21678;DHT22;11000;50.360;7.582;2022-12-18T01:18:43;-7.20;99.90
21678;DHT22;11000;50.360;7.582;2022-12-18T01:21:13;-7.30;99.90
21678;DHT22;11000;50.360;7.582;2022-12-18T01:23:33;-7.30;99.90
21678;DHT22;11000;50.360;7.582;2022-12-18T01:25:54;-7.30;99.90
21678;DHT22;11000;50.360;7.582;2022-12-18T01:28:15;-7.30;99.90
21678;DHT22;11000;50.360;7.582;2022-12-18T01:30:35;-7.30;99.90
21678;DHT22;11000;50.360;7.582;2022-12-18T01:32:55;-7.40;99.90
21678;DHT22;11000;50.360;7.582;2022-12-18T01:35:16;-7.30;99.90
21678;DHT22;11000;50.360;7.582;2022-12-18T01:37:36;-7.40;99.90
21678;DHT22;11000;50.360;7.582;2022-12-18T01:39:57;-7.40;99.90
21678;DHT22;11000;50.360;7.582;2022-12-18T01:42:18;-7.40;99.90
21678;DHT22;11000;50.360;7.582;2022-12-18T01:47:21;-7.40;99.90
21678;DHT22;11000;50.360;7.582;2022-12-18T01:49:44;-7.30;99.90
21678;DHT22;11000;50.360;7.582;2022-12-18T01:52:04;-7.40;99.90
21678;DHT22;11000;50.360;7.582;2022-12-18T01:54:24;-7.50;99.90
21678;DHT22;11000;50.360;7.582;2022-12-18T01:56:45;-7.40;99.90
21678;DHT22;11000;50.360;7.582;2022-12-18T01:59:08;-7.60;99.90
21678;DHT22;11000;50.360;7.582;2022-12-18T02:01:31;-7.60;99.90
21678;DHT22;11000;50.360;7.582;2022-12-18T02:03:52;-7.50;99.90
21678;DHT22;11000;50.360;7.582;2022-12-18T02:06:20;-7.60;99.90
21678;DHT22;11000;50.360;7.582;2022-12-18T02:11:52;-7.50;99.90
21678;DHT22;11000;50.360;7.582;2022-12-18T02:16:59;-7.80;99.90
21678;DHT22;11000;50.360;7.582;2022-12-18T02:19:37;-7.80;99.90
21678;DHT22;11000;50.360;7.582;2022-12-18T02:27:30;-7.70;99.90
21678;DHT22;11000;50.360;7.582;2022-12-18T02:29:53;-7.80;99.90
21678;DHT22;11000;50.360;7.582;2022-12-18T02:32:18;-7.90;99.90
21678;DHT22;11000;50.360;7.582;2022-12-18T02:34:40;-7.90;99.90
21678;DHT22;11000;50.360;7.582;2022-12-18T02:37:04;-7.90;99.90
21678;DHT22;11000;50.360;7.582;2022-12-18T02:39:26;-7.90;99.90
21678;DHT22;11000;50.360;7.582;2022-12-18T02:41:49;-7.90;99.90
21678;DHT22;11000;50.360;7.582;2022-12-18T02:44:12;-7.80;99.90
21678;DHT22;11000;50.360;7.582;2022-12-18T02:46:35;-7.90;99.90
21678;DHT22;11000;50.360;7.582;2022-12-18T02:49:12;-7.80;99.90
21678;DHT22;11000;50.360;7.582;2022-12-18T02:52:00;-7.90;99.90
21678;DHT22;11000;50.360;7.582;2022-12-18T02:54:55;-7.90;99.90
21678;DHT22;11000;50.360;7.582;2022-12-18T03:00:04;-7.90;99.90
21678;DHT22;11000;50.360;7.582;2022-12-18T03:05:25;-8.00;99.90
21678;DHT22;11000;50.360;7.582;2022-12-18T03:07:57;-8.00;99.90
21678;DHT22;11000;50.360;7.582;2022-12-18T03:10:23;-8.00;99.90
21678;DHT22;11000;50.360;7.582;2022-12-18T03:13:03;-8.00;99.90
21678;DHT22;11000;50.360;7.582;2022-12-18T03:15:28;-8.00;99.90
21678;DHT22;11000;50.360;7.582;2022-12-18T03:18:01;-8.00;99.90
21678;DHT22;11000;50.360;7.582;2022-12-18T03:20:25;-8.10;99.90
21678;DHT22;11000;50.360;7.582;2022-12-18T03:22:51;-8.10;99.90
21678;DHT22;11000;50.360;7.582;2022-12-18T03:25:14;-8.10;99.90
21678;DHT22;11000;50.360;7.582;2022-12-18T03:27:38;-8.10;99.90
21678;DHT22;11000;50.360;7.582;2022-12-18T03:30:06;-8.10;99.90
21678;DHT22;11000;50.360;7.582;2022-12-18T03:32:31;-8.10;99.90
21678;DHT22;11000;50.360;7.582;2022-12-18T03:34:55;-8.10;99.90
21678;DHT22;11000;50.360;7.582;2022-12-18T03:37:17;-8.10;99.90
21678;DHT22;11000;50.360;7.582;2022-12-18T03:39:38;-8.00;99.90
21678;DHT22;11000;50.360;7.582;2022-12-18T03:42:09;-8.10;99.90
21678;DHT22;11000;50.360;7.582;2022-12-18T03:47:31;-8.10;99.90
21678;DHT22;11000;50.360;7.582;2022-12-18T03:50:00;-8.10;99.90
21678;DHT22;11000;50.360;7.582;2022-12-18T03:55:10;-8.10;99.90
21678;DHT22;11000;50.360;7.582;2022-12-18T03:57:32;-8.20;99.90
21678;DHT22;11000;50.360;7.582;2022-12-18T04:00:00;-8.20;99.90
21678;DHT22;11000;50.360;7.582;2022-12-18T04:02:22;-8.20;99.90
21678;DHT22;11000;50.360;7.582;2022-12-18T04:04:44;-8.20;99.90
21678;DHT22;11000;50.360;7.582;2022-12-18T04:07:07;-8.20;99.90
21678;DHT22;11000;50.360;7.582;2022-12-18T04:09:28;-8.20;99.90
21678;DHT22;11000;50.360;7.582;2022-12-18T04:11:51;-8.20;99.90
21678;DHT22;11000;50.360;7.582;2022-12-18T04:14:12;-8.20;99.90
21678;DHT22;11000;50.360;7.582;2022-12-18T04:16:32;-8.20;99.90
21678;DHT22;11000;50.360;7.582;2022-12-18T04:18:54;-8.30;99.90
21678;DHT22;11000;50.360;7.582;2022-12-18T04:21:14;-8.20;99.90
21678;DHT22;11000;50.360;7.582;2022-12-18T04:23:35;-8.20;99.90
21678;DHT22;11000;50.360;7.582;2022-12-18T04:25:55;-8.40;99.90
21678;DHT22;11000;50.360;7.582;2022-12-18T04:28:16;-8.40;99.90
21678;DHT22;11000;50.360;7.582;2022-12-18T04:30:36;-8.40;99.90
21678;DHT22;11000;50.360;7.582;2022-12-18T04:32:57;-8.30;99.90
21678;DHT22;11000;50.360;7.582;2022-12-18T04:35:17;-8.30;99.90
21678;DHT22;11000;50.360;7.582;2022-12-18T04:37:38;-8.40;99.90
21678;DHT22;11000;50.360;7.582;2022-12-18T04:39:58;-8.40;99.90
21678;DHT22;11000;50.360;7.582;2022-12-18T04:42:19;-8.40;99.90
21678;DHT22;11000;50.360;7.582;2022-12-18T04:44:39;-8.40;99.90
21678;DHT22;11000;50.360;7.582;2022-12-18T04:47:00;-8.40;99.90
21678;DHT22;11000;50.360;7.582;2022-12-18T04:49:20;-8.40;99.90
21678;DHT22;11000;50.360;7.582;2022-12-18T04:51:41;-8.40;99.90
21678;DHT22;11000;50.360;7.582;2022-12-18T04:54:01;-8.40;99.90
21678;DHT22;11000;50.360;7.582;2022-12-18T04:56:22;-8.40;99.90
21678;DHT22;11000;50.360;7.582;2022-12-18T04:58:44;-8.40;99.90
21678;DHT22;11000;50.360;7.582;2022-12-18T05:01:05;-8.40;99.90
21678;DHT22;11000;50.360;7.582;2022-12-18T05:03:25;-8.50;99.90
21678;DHT22;11000;50.360;7.582;2022-12-18T05:05:49;-8.50;99.90
21678;DHT22;11000;50.360;7.582;2022-12-18T05:08:11;-8.50;99.90
21678;DHT22;11000;50.360;7.582;2022-12-18T05:10:31;-8.40;99.90
21678;DHT22;11000;50.360;7.582;2022-12-18T05:12:52;-8.50;99.90
21678;DHT22;11000;50.360;7.582;2022-12-18T05:15:18;-8.40;99.90
21678;DHT22;11000;50.360;7.582;2022-12-18T05:17:39;-8.40;99.90
21678;DHT22;11000;50.360;7.582;2022-12-18T05:19:59;-8.40;99.90
21678;DHT22;11000;50.360;7.582;2022-12-18T05:22:20;-8.40;99.90
21678;DHT22;11000;50.360;7.582;2022-12-18T05:24:40;-8.40;99.90
21678;DHT22;11000;50.360;7.582;2022-12-18T05:27:01;-8.50;99.90
21678;DHT22;11000;50.360;7.582;2022-12-18T05:29:22;-8.40;99.90
21678;DHT22;11000;50.360;7.582;2022-12-18T05:31:42;-8.50;99.90
21678;DHT22;11000;50.360;7.582;2022-12-18T05:34:02;-8.60;99.90
21678;DHT22;11000;50.360;7.582;2022-12-18T05:36:23;-8.60;99.90
21678;DHT22;11000;50.360;7.582;2022-12-18T05:38:44;-8.60;99.90
21678;DHT22;11000;50.360;7.582;2022-12-18T05:41:05;-8.70;99.90
21678;DHT22;11000;50.360;7.582;2022-12-18T05:43:26;-8.60;99.90
21678;DHT22;11000;50.360;7.582;2022-12-18T05:45:48;-8.60;99.90
21678;DHT22;11000;50.360;7.582;2022-12-18T05:48:09;-8.60;99.90
21678;DHT22;11000;50.360;7.582;2022-12-18T05:50:29;-8.60;99.90
21678;DHT22;11000;50.360;7.582;2022-12-18T05:52:50;-8.70;99.90
21678;DHT22;11000;50.360;7.582;2022-12-18T05:55:10;-8.80;99.90
21678;DHT22;11000;50.360;7.582;2022-12-18T05:57:31;-8.70;99.90
21678;DHT22;11000;50.360;7.582;2022-12-18T05:59:51;-8.70;99.90
21678;DHT22;11000;50.360;7.582;2022-12-18T06:02:12;-8.60;99.90
21678;DHT22;11000;50.360;7.582;2022-12-18T06:04:32;-8.60;99.90
21678;DHT22;11000;50.360;7.582;2022-12-18T06:06:53;-8.60;99.90
21678;DHT22;11000;50.360;7.582;2022-12-18T06:09:13;-8.70;99.90
21678;DHT22;11000;50.360;7.582;2022-12-18T06:11:35;-8.60;99.90
21678;DHT22;11000;50.360;7.582;2022-12-18T06:13:56;-8.70;99.90
21678;DHT22;11000;50.360;7.582;2022-12-18T06:16:17;-8.70;99.90
21678;DHT22;11000;50.360;7.582;2022-12-18T06:18:38;-8.70;99.90
21678;DHT22;11000;50.360;7.582;2022-12-18T06:20:59;-8.70;99.90
21678;DHT22;11000;50.360;7.582;2022-12-18T06:23:20;-8.70;99.90
21678;DHT22;11000;50.360;7.582;2022-12-18T06:25:40;-8.80;99.90
21678;DHT22;11000;50.360;7.582;2022-12-18T06:28:01;-8.80;99.90
21678;DHT22;11000;50.360;7.582;2022-12-18T06:30:21;-8.80;99.90
21678;DHT22;11000;50.360;7.582;2022-12-18T06:32:42;-8.90;99.90
21678;DHT22;11000;50.360;7.582;2022-12-18T06:35:03;-8.80;99.90
21678;DHT22;11000;50.360;7.582;2022-12-18T06:37:24;-8.80;99.90
21678;DHT22;11000;50.360;7.582;2022-12-18T06:39:46;-8.80;99.90
21678;DHT22;11000;50.360;7.582;2022-12-18T06:42:06;-8.80;99.90
21678;DHT22;11000;50.360;7.582;2022-12-18T06:44:27;-8.70;99.90
21678;DHT22;11000;50.360;7.582;2022-12-18T06:46:47;-8.80;99.90
21678;DHT22;11000;50.360;7.582;2022-12-18T06:49:08;-8.80;99.90
21678;DHT22;11000;50.360;7.582;2022-12-18T06:51:29;-8.80;99.90
21678;DHT22;11000;50.360;7.582;2022-12-18T06:53:50;-8.80;99.90
21678;DHT22;11000;50.360;7.582;2022-12-18T06:56:10;-8.70;99.90
21678;DHT22;11000;50.360;7.582;2022-12-18T06:58:31;-8.80;99.90
21678;DHT22;11000;50.360;7.582;2022-12-18T07:00:52;-8.80;99.90
21678;DHT22;11000;50.360;7.582;2022-12-18T07:03:12;-8.80;99.90
21678;DHT22;11000;50.360;7.582;2022-12-18T07:05:33;-8.80;99.90
21678;DHT22;11000;50.360;7.582;2022-12-18T07:07:54;-8.90;99.90
21678;DHT22;11000;50.360;7.582;2022-12-18T07:10:15;-8.80;99.90
21678;DHT22;11000;50.360;7.582;2022-12-18T07:12:37;-8.90;99.90
21678;DHT22;11000;50.360;7.582;2022-12-18T07:14:58;-9.10;99.90
21678;DHT22;11000;50.360;7.582;2022-12-18T07:17:18;-9.20;99.90
21678;DHT22;11000;50.360;7.582;2022-12-18T07:19:39;-9.30;99.90
21678;DHT22;11000;50.360;7.582;2022-12-18T07:22:01;-9.20;99.90
21678;DHT22;11000;50.360;7.582;2022-12-18T07:24:26;-9.20;99.90
21678;DHT22;11000;50.360;7.582;2022-12-18T07:26:47;-9.20;99.90
21678;DHT22;11000;50.360;7.582;2022-12-18T07:29:08;-9.10;99.90
21678;DHT22;11000;50.360;7.582;2022-12-18T07:31:28;-9.00;99.90
21678;DHT22;11000;50.360;7.582;2022-12-18T07:33:50;-9.00;99.90
21678;DHT22;11000;50.360;7.582;2022-12-18T07:36:12;-9.00;99.90
21678;DHT22;11000;50.360;7.582;2022-12-18T07:38:36;-9.00;99.90
21678;DHT22;11000;50.360;7.582;2022-12-18T07:41:06;-8.90;99.90
21678;DHT22;11000;50.360;7.582;2022-12-18T07:43:30;-8.90;99.90
21678;DHT22;11000;50.360;7.582;2022-12-18T07:45:52;-8.90;99.90
21678;DHT22;11000;50.360;7.582;2022-12-18T07:48:14;-8.90;99.90
21678;DHT22;11000;50.360;7.582;2022-12-18T07:50:35;-9.00;99.90
21678;DHT22;11000;50.360;7.582;2022-12-18T07:52:57;-9.00;99.90
21678;DHT22;11000;50.360;7.582;2022-12-18T07:55:18;-9.10;99.90
21678;DHT22;11000;50.360;7.582;2022-12-18T07:57:39;-9.10;99.90
21678;DHT22;11000;50.360;7.582;2022-12-18T07:59:59;-9.10;99.90
21678;DHT22;11000;50.360;7.582;2022-12-18T08:02:20;-9.20;99.90
21678;DHT22;11000;50.360;7.582;2022-12-18T08:04:41;-9.10;99.90
21678;DHT22;11000;50.360;7.582;2022-12-18T08:07:01;-9.20;99.90
21678;DHT22;11000;50.360;7.582;2022-12-18T08:09:22;-9.20;99.90
21678;DHT22;11000;50.360;7.582;2022-12-18T08:11:42;-9.10;99.90
21678;DHT22;11000;50.360;7.582;2022-12-18T08:14:03;-9.10;99.90
21678;DHT22;11000;50.360;7.582;2022-12-18T08:16:26;-9.10;99.90
21678;DHT22;11000;50.360;7.582;2022-12-18T08:18:47;-9.10;99.90
21678;DHT22;11000;50.360;7.582;2022-12-18T08:21:12;-9.00;99.90
21678;DHT22;11000;50.360;7.582;2022-12-18T08:23:33;-9.00;99.90
21678;DHT22;11000;50.360;7.582;2022-12-18T08:25:54;-9.10;99.90
21678;DHT22;11000;50.360;7.582;2022-12-18T08:28:14;-9.00;99.90
21678;DHT22;11000;50.360;7.582;2022-12-18T08:30:35;-9.00;99.90
21678;DHT22;11000;50.360;7.582;2022-12-18T08:32:56;-8.90;99.90
21678;DHT22;11000;50.360;7.582;2022-12-18T08:35:16;-8.90;99.90
21678;DHT22;11000;50.360;7.582;2022-12-18T08:37:37;-8.80;99.90
21678;DHT22;11000;50.360;7.582;2022-12-18T08:39:57;-8.70;99.90
21678;DHT22;11000;50.360;7.582;2022-12-18T08:42:18;-8.70;99.90
21678;DHT22;11000;50.360;7.582;2022-12-18T08:44:57;-8.70;99.90
21678;DHT22;11000;50.360;7.582;2022-12-18T08:47:18;-8.70;99.90
21678;DHT22;11000;50.360;7.582;2022-12-18T08:49:39;-8.60;99.90
21678;DHT22;11000;50.360;7.582;2022-12-18T08:52:08;-8.60;99.90
21678;DHT22;11000;50.360;7.582;2022-12-18T08:54:30;-8.60;99.90
21678;DHT22;11000;50.360;7.582;2022-12-18T08:56:50;-8.50;99.90
21678;DHT22;11000;50.360;7.582;2022-12-18T08:59:12;-8.40;99.90
21678;DHT22;11000;50.360;7.582;2022-12-18T09:01:33;-8.40;99.90
21678;DHT22;11000;50.360;7.582;2022-12-18T09:03:54;-8.30;99.90
21678;DHT22;11000;50.360;7.582;2022-12-18T09:06:16;-8.30;99.90
21678;DHT22;11000;50.360;7.582;2022-12-18T09:08:38;-8.30;99.90
21678;DHT22;11000;50.360;7.582;2022-12-18T09:10:59;-8.20;99.90
21678;DHT22;11000;50.360;7.582;2022-12-18T09:13:20;-8.20;99.90
21678;DHT22;11000;50.360;7.582;2022-12-18T09:15:42;-8.20;99.90
21678;DHT22;11000;50.360;7.582;2022-12-18T09:18:03;-8.10;99.90
21678;DHT22;11000;50.360;7.582;2022-12-18T09:20:26;-8.00;99.90
21678;DHT22;11000;50.360;7.582;2022-12-18T09:22:48;-8.00;99.90
21678;DHT22;11000;50.360;7.582;2022-12-18T09:25:09;-7.90;99.90
21678;DHT22;11000;50.360;7.582;2022-12-18T09:27:30;-7.80;99.90
21678;DHT22;11000;50.360;7.582;2022-12-18T09:29:51;-7.80;99.90
21678;DHT22;11000;50.360;7.582;2022-12-18T09:32:14;-7.70;99.90
21678;DHT22;11000;50.360;7.582;2022-12-18T09:34:35;-7.70;99.90
21678;DHT22;11000;50.360;7.582;2022-12-18T09:36:55;-7.60;99.90
21678;DHT22;11000;50.360;7.582;2022-12-18T09:39:16;-7.50;99.90
21678;DHT22;11000;50.360;7.582;2022-12-18T09:41:50;-7.50;99.90
21678;DHT22;11000;50.360;7.582;2022-12-18T09:44:27;-7.50;99.90
21678;DHT22;11000;50.360;7.582;2022-12-18T09:47:03;-7.50;99.90
21678;DHT22;11000;50.360;7.582;2022-12-18T09:49:30;-7.50;99.90
21678;DHT22;11000;50.360;7.582;2022-12-18T09:51:58;-7.40;99.90
21678;DHT22;11000;50.360;7.582;2022-12-18T09:54:26;-7.50;99.90
21678;DHT22;11000;50.360;7.582;2022-12-18T09:56:50;-7.40;99.90
21678;DHT22;11000;50.360;7.582;2022-12-18T09:59:37;-7.30;99.90
21678;DHT22;11000;50.360;7.582;2022-12-18T10:01:59;-7.30;99.90
21678;DHT22;11000;50.360;7.582;2022-12-18T10:04:21;-7.20;99.90
21678;DHT22;11000;50.360;7.582;2022-12-18T10:09:25;-7.10;99.90
21678;DHT22;11000;50.360;7.582;2022-12-18T10:25:03;-6.80;99.90
21678;DHT22;11000;50.360;7.582;2022-12-18T10:27:27;-6.80;99.90
21678;DHT22;11000;50.360;7.582;2022-12-18T10:29:47;-6.70;99.90
21678;DHT22;11000;50.360;7.582;2022-12-18T10:32:21;-6.70;99.90
21678;DHT22;11000;50.360;7.582;2022-12-18T10:34:49;-6.50;99.90
21678;DHT22;11000;50.360;7.582;2022-12-18T10:37:19;-6.40;99.90
21678;DHT22;11000;50.360;7.582;2022-12-18T10:39:40;-6.40;99.90
21678;DHT22;11000;50.360;7.582;2022-12-18T10:42:18;-6.40;99.90
21678;DHT22;11000;50.360;7.582;2022-12-18T10:44:40;-6.30;99.90
21678;DHT22;11000;50.360;7.582;2022-12-18T10:47:05;-6.20;99.90
21678;DHT22;11000;50.360;7.582;2022-12-18T10:49:30;-6.10;99.90
21678;DHT22;11000;50.360;7.582;2022-12-18T10:52:15;-6.10;99.90
21678;DHT22;11000;50.360;7.582;2022-12-18T10:54:37;-6.00;99.90
21678;DHT22;11000;50.360;7.582;2022-12-18T10:57:15;-6.10;99.90
21678;DHT22;11000;50.360;7.582;2022-12-18T10:59:50;-6.00;99.90
21678;DHT22;11000;50.360;7.582;2022-12-18T11:02:33;-5.90;99.90
21678;DHT22;11000;50.360;7.582;2022-12-18T11:04:54;-5.90;99.90
21678;DHT22;11000;50.360;7.582;2022-12-18T11:07:15;-5.80;99.90
21678;DHT22;11000;50.360;7.582;2022-12-18T11:09:38;-5.70;99.90
21678;DHT22;11000;50.360;7.582;2022-12-18T11:12:05;-5.60;99.90
21678;DHT22;11000;50.360;7.582;2022-12-18T11:14:46;-5.60;99.90
21678;DHT22;11000;50.360;7.582;2022-12-18T11:17:19;-5.60;99.90
21678;DHT22;11000;50.360;7.582;2022-12-18T11:19:41;-5.60;99.90
21678;DHT22;11000;50.360;7.582;2022-12-18T11:22:17;-5.60;99.90
21678;DHT22;11000;50.360;7.582;2022-12-18T11:24:59;-5.50;99.90
21678;DHT22;11000;50.360;7.582;2022-12-18T11:27:21;-5.40;99.90
21678;DHT22;11000;50.360;7.582;2022-12-18T11:29:41;-5.30;99.90
21678;DHT22;11000;50.360;7.582;2022-12-18T11:34:35;-5.20;99.90
21678;DHT22;11000;50.360;7.582;2022-12-18T11:36:58;-5.20;99.90
21678;DHT22;11000;50.360;7.582;2022-12-18T11:39:36;-5.20;99.90
21678;DHT22;11000;50.360;7.582;2022-12-18T11:42:20;-5.20;99.90
21678;DHT22;11000;50.360;7.582;2022-12-18T11:45:31;-5.10;99.90
21678;DHT22;11000;50.360;7.582;2022-12-18T11:48:04;-5.10;99.90
21678;DHT22;11000;50.360;7.582;2022-12-18T11:50:37;-5.00;99.90
21678;DHT22;11000;50.360;7.582;2022-12-18T11:53:03;-4.90;99.90
21678;DHT22;11000;50.360;7.582;2022-12-18T11:58:20;-4.60;99.90
21678;DHT22;11000;50.360;7.582;2022-12-18T12:01:13;-4.50;99.90
21678;DHT22;11000;50.360;7.582;2022-12-18T12:03:57;-4.60;99.90
21678;DHT22;11000;50.360;7.582;2022-12-18T12:06:36;-4.60;99.90
21678;DHT22;11000;50.360;7.582;2022-12-18T12:09:23;-4.50;99.90
21678;DHT22;11000;50.360;7.582;2022-12-18T12:11:51;-4.40;99.90
21678;DHT22;11000;50.360;7.582;2022-12-18T12:20:02;-4.30;99.90
21678;DHT22;11000;50.360;7.582;2022-12-18T12:22:38;-4.30;99.90
21678;DHT22;11000;50.360;7.582;2022-12-18T12:25:13;-4.20;99.90
21678;DHT22;11000;50.360;7.582;2022-12-18T12:30:41;-4.20;99.90
21678;DHT22;11000;50.360;7.582;2022-12-18T12:38:45;-3.80;99.90
21678;DHT22;11000;50.360;7.582;2022-12-18T12:41:11;-3.80;99.90
21678;DHT22;11000;50.360;7.582;2022-12-18T12:43:56;-3.70;99.90
21678;DHT22;11000;50.360;7.582;2022-12-18T12:46:19;-3.60;99.90
21678;DHT22;11000;50.360;7.582;2022-12-18T12:48:50;-3.60;99.90
21678;DHT22;11000;50.360;7.582;2022-12-18T12:51:32;-3.50;99.90
21678;DHT22;11000;50.360;7.582;2022-12-18T12:53:56;-3.40;99.90
21678;DHT22;11000;50.360;7.582;2022-12-18T12:56:19;-3.30;99.90
21678;DHT22;11000;50.360;7.582;2022-12-18T13:01:24;-2.90;99.90
21678;DHT22;11000;50.360;7.582;2022-12-18T13:08:59;-2.30;99.90
21678;DHT22;11000;50.360;7.582;2022-12-18T13:11:35;-2.20;99.90
21678;DHT22;11000;50.360;7.582;2022-12-18T13:14:36;-2.20;99.90
21678;DHT22;11000;50.360;7.582;2022-12-18T13:19:38;-2.10;99.90
21678;DHT22;11000;50.360;7.582;2022-12-18T13:21:58;-2.00;99.90
21678;DHT22;11000;50.360;7.582;2022-12-18T13:26:42;-2.00;99.90
21678;DHT22;11000;50.360;7.582;2022-12-18T13:29:03;-2.00;99.90
21678;DHT22;11000;50.360;7.582;2022-12-18T13:34:23;-1.90;99.90
21678;DHT22;11000;50.360;7.582;2022-12-18T13:36:45;-1.90;99.90
21678;DHT22;11000;50.360;7.582;2022-12-18T13:41:39;-2.00;99.90
21678;DHT22;11000;50.360;7.582;2022-12-18T13:44:36;-2.00;99.90
21678;DHT22;11000;50.360;7.582;2022-12-18T13:47:02;-2.00;99.90
21678;DHT22;11000;50.360;7.582;2022-12-18T13:49:38;-2.00;99.90
21678;DHT22;11000;50.360;7.582;2022-12-18T13:51:59;-2.00;99.90
21678;DHT22;11000;50.360;7.582;2022-12-18T13:54:30;-2.00;99.90
21678;DHT22;11000;50.360;7.582;2022-12-18T13:56:53;-1.90;99.90
21678;DHT22;11000;50.360;7.582;2022-12-18T13:59:20;-2.00;99.90
21678;DHT22;11000;50.360;7.582;2022-12-18T14:01:43;-1.90;99.90
21678;DHT22;11000;50.360;7.582;2022-12-18T14:04:11;-2.00;99.90
21678;DHT22;11000;50.360;7.582;2022-12-18T14:06:33;-1.90;99.90
21678;DHT22;11000;50.360;7.582;2022-12-18T14:08:58;-2.00;99.90
21678;DHT22;11000;50.360;7.582;2022-12-18T14:11:23;-1.90;99.90
21678;DHT22;11000;50.360;7.582;2022-12-18T14:13:43;-1.90;99.90
21678;DHT22;11000;50.360;7.582;2022-12-18T14:16:05;-1.90;99.90
21678;DHT22;11000;50.360;7.582;2022-12-18T14:18:34;-1.90;99.90
21678;DHT22;11000;50.360;7.582;2022-12-18T14:21:00;-1.90;99.90
21678;DHT22;11000;50.360;7.582;2022-12-18T14:23:33;-1.90;99.90
21678;DHT22;11000;50.360;7.582;2022-12-18T14:25:54;-1.90;99.90
21678;DHT22;11000;50.360;7.582;2022-12-18T14:28:15;-1.90;99.90
21678;DHT22;11000;50.360;7.582;2022-12-18T14:30:40;-1.90;99.90
21678;DHT22;11000;50.360;7.582;2022-12-18T14:33:12;-1.90;99.90
21678;DHT22;11000;50.360;7.582;2022-12-18T14:35:35;-1.90;99.90
21678;DHT22;11000;50.360;7.582;2022-12-18T14:38:21;-1.90;99.90
21678;DHT22;11000;50.360;7.582;2022-12-18T14:40:43;-1.90;99.90
21678;DHT22;11000;50.360;7.582;2022-12-18T14:43:03;-1.90;99.90
21678;DHT22;11000;50.360;7.582;2022-12-18T14:45:37;-2.00;99.90
21678;DHT22;11000;50.360;7.582;2022-12-18T14:47:59;-1.90;99.90
21678;DHT22;11000;50.360;7.582;2022-12-18T14:50:20;-2.00;99.90
21678;DHT22;11000;50.360;7.582;2022-12-18T14:52:40;-2.00;99.90
21678;DHT22;11000;50.360;7.582;2022-12-18T14:55:01;-2.10;99.90
21678;DHT22;11000;50.360;7.582;2022-12-18T14:57:28;-2.00;99.90
21678;DHT22;11000;50.360;7.582;2022-12-18T14:59:51;-2.10;99.90
21678;DHT22;11000;50.360;7.582;2022-12-18T15:02:23;-2.10;99.90
21678;DHT22;11000;50.360;7.582;2022-12-18T15:04:45;-2.00;99.90
21678;DHT22;11000;50.360;7.582;2022-12-18T15:07:19;-2.10;99.90
21678;DHT22;11000;50.360;7.582;2022-12-18T15:09:42;-2.10;99.90
21678;DHT22;11000;50.360;7.582;2022-12-18T15:12:03;-2.00;99.90
21678;DHT22;11000;50.360;7.582;2022-12-18T15:14:34;-2.10;99.90
21678;DHT22;11000;50.360;7.582;2022-12-18T15:16:59;-2.10;99.90
21678;DHT22;11000;50.360;7.582;2022-12-18T15:19:24;-2.10;99.90
21678;DHT22;11000;50.360;7.582;2022-12-18T15:21:47;-2.10;99.90
21678;DHT22;11000;50.360;7.582;2022-12-18T15:24:16;-2.10;99.90
21678;DHT22;11000;50.360;7.582;2022-12-18T15:26:37;-2.10;99.90
21678;DHT22;11000;50.360;7.582;2022-12-18T15:28:58;-2.10;99.90
21678;DHT22;11000;50.360;7.582;2022-12-18T15:31:23;-2.10;99.90
21678;DHT22;11000;50.360;7.582;2022-12-18T15:33:59;-2.10;99.90
21678;DHT22;11000;50.360;7.582;2022-12-18T15:36:23;-2.10;99.90
21678;DHT22;11000;50.360;7.582;2022-12-18T15:38:48;-2.10;99.90
21678;DHT22;11000;50.360;7.582;2022-12-18T15:41:13;-2.20;99.90
21678;DHT22;11000;50.360;7.582;2022-12-18T15:43:37;-2.20;99.90
21678;DHT22;11000;50.360;7.582;2022-12-18T15:45:58;-2.20;99.90
21678;DHT22;11000;50.360;7.582;2022-12-18T15:48:22;-2.20;99.90
21678;DHT22;11000;50.360;7.582;2022-12-18T15:50:43;-2.30;99.90
21678;DHT22;11000;50.360;7.582;2022-12-18T15:53:03;-2.30;99.90
21678;DHT22;11000;50.360;7.582;2022-12-18T15:55:24;-2.30;99.90
21678;DHT22;11000;50.360;7.582;2022-12-18T15:58:04;-2.30;99.90
21678;DHT22;11000;50.360;7.582;2022-12-18T16:00:25;-2.30;99.90
21678;DHT22;11000;50.360;7.582;2022-12-18T16:02:46;-2.20;99.90
21678;DHT22;11000;50.360;7.582;2022-12-18T16:05:14;-2.30;99.90
21678;DHT22;11000;50.360;7.582;2022-12-18T16:07:35;-2.20;99.90
21678;DHT22;11000;50.360;7.582;2022-12-18T16:09:55;-2.30;99.90
21678;DHT22;11000;50.360;7.582;2022-12-18T16:12:22;-2.30;99.90
21678;DHT22;11000;50.360;7.582;2022-12-18T16:14:44;-2.30;99.90
21678;DHT22;11000;50.360;7.582;2022-12-18T16:17:09;-2.30;99.90
21678;DHT22;11000;50.360;7.582;2022-12-18T16:19:29;-2.30;99.90
21678;DHT22;11000;50.360;7.582;2022-12-18T16:21:51;-2.20;99.90
21678;DHT22;11000;50.360;7.582;2022-12-18T16:24:15;-2.30;99.90
21678;DHT22;11000;50.360;7.582;2022-12-18T16:26:36;-2.30;99.90
21678;DHT22;11000;50.360;7.582;2022-12-18T16:28:57;-2.30;99.90
21678;DHT22;11000;50.360;7.582;2022-12-18T16:31:17;-2.30;99.90